createdAt,value
2019-01-23T00:00:01.141Z,24.52
2019-01-23T00:02:27.501Z,24.50
2019-01-23T00:04:53.792Z,23.32
2019-01-23T00:07:20.180Z,22.48
2019-01-23T00:09:46.586Z,24.67
2019-01-23T00:12:12.943Z,24.87
2019-01-23T00:14:39.359Z,22.30
2019-01-23T00:17:05.637Z,24.30
2019-01-23T00:19:31.991Z,22.13
2019-01-23T00:21:58.381Z,23.73
2019-01-23T00:24:24.685Z,23.80
2019-01-23T00:26:51.060Z,24.37
2019-01-23T00:29:17.461Z,25.95
2019-01-23T00:31:43.747Z,23.22
2019-01-23T00:34:10.145Z,24.57
2019-01-23T00:36:36.658Z,22.17
2019-01-23T00:39:05.845Z,24.90
2019-01-23T00:41:32.224Z,22.77
2019-01-23T00:43:58.527Z,22.52
2019-01-23T00:46:24.776Z,23.98
2019-01-23T00:48:51.984Z,23.62
2019-01-23T00:51:18.337Z,21.93
2019-01-23T00:53:44.625Z,23.00
2019-01-23T00:56:10.982Z,23.85
2019-01-23T00:58:37.354Z,22.87
2019-01-23T01:01:04.249Z,23.32
2019-01-23T01:03:30.605Z,23.40
2019-01-23T01:05:56.992Z,28.38
2019-01-23T01:08:23.381Z,24.70
2019-01-23T01:10:49.757Z,24.05
2019-01-23T01:13:16.149Z,36.42
2019-01-23T01:15:42.632Z,26.55
2019-01-23T01:18:09.106Z,21.75
2019-01-23T01:20:35.597Z,21.82
2019-01-23T01:23:01.956Z,23.32
2019-01-23T01:25:28.443Z,28.35
2019-01-23T01:27:54.832Z,25.88
2019-01-23T01:30:23.233Z,21.73
2019-01-23T01:32:49.716Z,23.18
2019-01-23T01:35:16.089Z,21.80
2019-01-23T01:37:44.354Z,22.25
2019-01-23T01:40:13.061Z,23.20
2019-01-23T01:42:39.441Z,21.42
2019-01-23T01:45:07.520Z,20.68
2019-01-23T01:47:33.918Z,23.62
2019-01-23T01:50:00.322Z,23.62
2019-01-23T01:52:26.591Z,23.60
2019-01-23T01:54:53.381Z,23.05
2019-01-23T01:57:19.855Z,21.75
2019-01-23T01:59:46.146Z,22.07
2019-01-23T02:02:12.417Z,23.12
2019-01-23T02:04:38.763Z,21.80
2019-01-23T02:07:05.083Z,21.02
2019-01-23T02:09:35.471Z,20.48
2019-01-23T02:11:59.820Z,21.27
2019-01-23T02:14:26.210Z,22.00
2019-01-23T02:16:52.488Z,22.00
2019-01-23T02:19:18.760Z,22.58
2019-01-23T02:21:45.132Z,20.77
2019-01-23T02:24:11.699Z,22.77
2019-01-23T02:26:38.113Z,21.27
2019-01-23T02:29:09.433Z,21.07
2019-01-23T02:31:32.760Z,24.50
2019-01-23T02:33:59.136Z,21.90
2019-01-23T02:36:25.522Z,20.95
2019-01-23T02:38:51.909Z,20.90
2019-01-23T02:41:18.279Z,22.17
2019-01-23T02:43:44.527Z,22.42
2019-01-23T02:46:11.000Z,21.33
2019-01-23T02:48:37.248Z,21.37
2019-01-23T02:51:03.771Z,22.85
2019-01-23T02:53:30.024Z,21.40
2019-01-23T02:55:56.296Z,21.55
2019-01-23T02:58:23.613Z,20.82
2019-01-23T03:00:49.880Z,23.30
2019-01-23T03:03:16.439Z,22.55
2019-01-23T03:05:42.838Z,21.37
2019-01-23T03:08:09.119Z,21.02
2019-01-23T03:10:35.645Z,21.23
2019-01-23T03:13:02.130Z,24.60
2019-01-23T03:15:28.815Z,19.57
2019-01-23T03:17:55.114Z,21.27
2019-01-23T03:20:21.509Z,21.42
2019-01-23T03:22:48.072Z,21.05
2019-01-23T03:25:14.670Z,21.42
2019-01-23T03:27:41.187Z,20.92
2019-01-23T03:30:13.379Z,20.65
2019-01-23T03:32:39.674Z,19.85
2019-01-23T03:35:08.149Z,20.82
2019-01-23T03:37:34.417Z,21.25
2019-01-23T03:40:00.715Z,22.45
2019-01-23T03:42:27.280Z,19.17
2019-01-23T03:44:53.711Z,22.37
2019-01-23T03:47:20.260Z,20.97
2019-01-23T03:49:47.028Z,24.30
2019-01-23T03:52:13.442Z,19.62
2019-01-23T03:54:39.803Z,22.93
2019-01-23T03:57:06.505Z,21.60
2019-01-23T03:59:32.992Z,20.65
2019-01-23T04:01:59.367Z,20.17
2019-01-23T04:04:26.094Z,20.77
2019-01-23T04:06:52.482Z,29.55
2019-01-23T04:09:18.779Z,22.62
2019-01-23T04:11:45.084Z,21.35
2019-01-23T04:14:11.440Z,21.90
2019-01-23T04:16:37.805Z,21.02
2019-01-23T04:19:04.115Z,21.35
2019-01-23T04:21:30.488Z,19.12
2019-01-23T04:23:56.857Z,20.17
2019-01-23T04:26:23.245Z,20.37
2019-01-23T04:28:49.544Z,19.90
2019-01-23T04:31:15.897Z,19.45
2019-01-23T04:33:42.248Z,19.73
2019-01-23T04:36:08.657Z,20.08
2019-01-23T04:38:34.926Z,33.63
2019-01-23T04:41:01.196Z,21.45
2019-01-23T04:43:27.506Z,18.05
2019-01-23T04:45:53.863Z,20.05
2019-01-23T04:48:20.230Z,18.27
2019-01-23T04:51:04.955Z,18.73
2019-01-23T04:53:33.128Z,20.50
2019-01-23T04:56:00.507Z,19.25
2019-01-23T04:58:26.894Z,20.75
2019-01-23T05:00:53.250Z,20.10
2019-01-23T05:03:19.659Z,20.40
2019-01-23T05:05:45.971Z,19.07
2019-01-23T05:08:12.292Z,19.90
2019-01-23T05:10:38.626Z,21.95
2019-01-23T05:13:05.092Z,18.73
2019-01-23T05:15:31.506Z,23.20
2019-01-23T05:17:58.746Z,21.17
2019-01-23T05:20:25.128Z,20.82
2019-01-23T05:22:51.461Z,21.77
2019-01-23T05:25:17.878Z,19.65
2019-01-23T05:27:46.683Z,21.52
2019-01-23T05:30:16.368Z,19.37
2019-01-23T05:32:42.697Z,20.35
2019-01-23T05:35:09.316Z,22.77
2019-01-23T05:37:35.700Z,20.60
2019-01-23T05:40:05.189Z,20.17
2019-01-23T05:42:31.484Z,22.85
2019-01-23T05:44:57.857Z,19.87
2019-01-23T05:47:24.145Z,20.40
2019-01-23T05:49:50.752Z,21.62
2019-01-23T05:52:16.992Z,22.13
2019-01-23T05:54:43.296Z,21.25
2019-01-23T05:57:09.631Z,20.32
2019-01-23T05:59:35.922Z,19.85
2019-01-23T06:02:02.371Z,21.68
2019-01-23T06:04:28.665Z,21.37
2019-01-23T06:06:54.940Z,18.48
2019-01-23T06:09:22.788Z,21.82
2019-01-23T06:11:49.378Z,22.10
2019-01-23T06:14:15.651Z,21.42
2019-01-23T06:16:41.923Z,21.23
2019-01-23T06:19:08.176Z,21.73
2019-01-23T06:21:34.452Z,21.70
2019-01-23T06:24:00.764Z,21.65
2019-01-23T06:26:27.048Z,21.05
2019-01-23T06:28:53.422Z,20.45
2019-01-23T06:31:20.925Z,19.05
2019-01-23T06:33:47.213Z,21.02
2019-01-23T06:36:13.480Z,21.37
2019-01-23T06:38:39.809Z,21.50
2019-01-23T06:41:06.107Z,20.62
2019-01-23T06:43:32.486Z,20.30
2019-01-23T06:45:58.880Z,20.97
2019-01-23T06:48:25.244Z,19.60
2019-01-23T06:50:51.628Z,19.10
2019-01-23T06:53:17.916Z,18.12
2019-01-23T06:55:44.397Z,20.57
2019-01-23T06:58:10.707Z,19.15
2019-01-23T07:00:36.985Z,19.40
2019-01-23T07:03:03.472Z,19.82
2019-01-23T07:05:29.890Z,18.82
2019-01-23T07:07:56.333Z,19.95
2019-01-23T07:10:23.294Z,19.92
2019-01-23T07:12:49.851Z,22.90
2019-01-23T07:15:16.833Z,22.60
2019-01-23T07:17:43.058Z,20.43
2019-01-23T07:20:12.951Z,20.88
2019-01-23T07:22:39.337Z,20.43
2019-01-23T07:25:08.018Z,20.48
2019-01-23T07:27:34.577Z,21.48
2019-01-23T07:30:00.868Z,27.22
2019-01-23T07:32:27.306Z,22.90
2019-01-23T07:34:53.727Z,21.60
2019-01-23T07:37:20.092Z,18.73
2019-01-23T07:39:46.472Z,20.85
2019-01-23T07:42:12.901Z,23.95
2019-01-23T07:44:39.269Z,20.45
2019-01-23T07:47:05.743Z,20.68
2019-01-23T07:49:32.037Z,20.97
2019-01-23T07:51:58.431Z,19.82
2019-01-23T07:54:24.818Z,19.40
2019-01-23T07:56:51.177Z,19.45
2019-01-23T07:59:17.505Z,19.65
2019-01-23T08:01:43.857Z,20.35
2019-01-23T08:04:10.344Z,19.25
2019-01-23T08:06:36.660Z,18.17
2019-01-23T08:09:06.045Z,18.90
2019-01-23T08:11:32.512Z,17.82
2019-01-23T08:13:58.864Z,18.15
2019-01-23T08:16:25.438Z,19.00
2019-01-23T08:18:51.764Z,19.57
2019-01-23T08:21:18.113Z,19.10
2019-01-23T08:23:44.395Z,18.82
2019-01-23T08:26:10.788Z,18.32
2019-01-23T08:28:37.257Z,18.15
2019-01-23T08:31:03.872Z,18.40
2019-01-23T08:33:30.245Z,18.00
2019-01-23T08:35:56.487Z,16.07
2019-01-23T08:38:22.889Z,18.02
2019-01-23T08:40:49.221Z,17.52
2019-01-23T08:43:15.695Z,17.20
2019-01-23T08:45:42.115Z,17.27
2019-01-23T08:48:08.617Z,17.82
2019-01-23T08:50:56.664Z,18.92
2019-01-23T08:53:23.043Z,18.73
2019-01-23T08:55:53.552Z,18.57
2019-01-23T08:58:17.660Z,20.43
2019-01-23T09:00:46.038Z,18.55
2019-01-23T09:03:12.276Z,16.42
2019-01-23T09:05:38.719Z,18.40
2019-01-23T09:08:05.220Z,20.72
2019-01-23T09:10:31.781Z,19.57
2019-01-23T09:12:58.092Z,18.67
2019-01-23T09:15:24.500Z,18.00
2019-01-23T09:17:50.883Z,19.60
2019-01-23T09:20:18.693Z,19.23
2019-01-23T09:22:45.151Z,19.25
2019-01-23T09:25:17.764Z,19.45
2019-01-23T09:27:44.698Z,18.92
2019-01-23T09:30:29.519Z,17.67
2019-01-23T09:33:25.623Z,19.37
2019-01-23T09:36:12.431Z,17.87
2019-01-23T09:39:00.808Z,19.55
2019-01-23T09:41:53.813Z,20.23
2019-01-23T09:44:55.224Z,18.55
2019-01-23T09:47:28.032Z,17.65
2019-01-23T09:50:01.099Z,18.82
2019-01-23T09:52:34.112Z,19.40
2019-01-23T09:55:00.464Z,19.07
2019-01-23T09:57:26.948Z,19.20
2019-01-23T09:59:53.307Z,18.52
2019-01-23T10:02:19.746Z,19.48
2019-01-23T10:04:46.009Z,17.80
2019-01-23T10:07:12.318Z,18.70
2019-01-23T10:09:38.590Z,18.65
2019-01-23T10:12:05.077Z,19.92
2019-01-23T10:14:31.468Z,19.23
2019-01-23T10:16:57.874Z,19.25
2019-01-23T10:19:24.148Z,18.60
2019-01-23T10:21:50.542Z,18.15
2019-01-23T10:24:16.832Z,20.00
2019-01-23T10:26:43.411Z,19.12
2019-01-23T10:29:09.740Z,19.37
2019-01-23T10:31:36.036Z,20.17
2019-01-23T10:34:02.892Z,19.92
2019-01-23T10:36:29.294Z,19.10
2019-01-23T10:38:55.560Z,19.65
2019-01-23T10:41:22.040Z,18.82
2019-01-23T10:43:48.552Z,19.27
2019-01-23T10:46:14.884Z,19.23
2019-01-23T10:48:41.286Z,18.90
2019-01-23T10:51:07.789Z,19.27
2019-01-23T10:53:34.253Z,19.30
2019-01-23T10:56:00.620Z,18.27
2019-01-23T10:58:27.049Z,20.00
2019-01-23T11:00:53.415Z,19.40
2019-01-23T11:03:19.879Z,18.98
2019-01-23T11:05:46.365Z,17.55
2019-01-23T11:08:12.651Z,18.75
2019-01-23T11:10:39.122Z,18.35
2019-01-23T11:13:05.617Z,19.20
2019-01-23T11:15:31.992Z,20.55
2019-01-23T11:17:58.357Z,19.73
2019-01-23T11:20:24.850Z,18.30
2019-01-23T11:22:51.313Z,18.15
2019-01-23T11:25:17.796Z,18.75
2019-01-23T11:27:44.751Z,18.40
2019-01-23T11:30:20.033Z,20.15
2019-01-23T11:32:46.501Z,20.35
2019-01-23T11:35:13.456Z,19.50
2019-01-23T11:37:39.945Z,20.30
2019-01-23T11:40:10.057Z,17.87
2019-01-23T11:42:36.440Z,19.40
2019-01-23T11:45:06.109Z,18.02
2019-01-23T11:47:32.593Z,18.02
2019-01-23T11:49:58.888Z,18.15
2019-01-23T11:52:25.240Z,19.55
2019-01-23T11:54:51.540Z,18.98
2019-01-23T11:57:17.942Z,19.98
2019-01-23T11:59:44.172Z,17.98
2019-01-23T12:02:10.754Z,18.62
2019-01-23T12:04:37.129Z,19.45
2019-01-23T12:07:03.628Z,20.12
2019-01-23T12:09:30.001Z,17.60
2019-01-23T12:11:56.472Z,19.57
2019-01-23T12:14:22.884Z,17.80
2019-01-23T12:16:49.337Z,19.60
2019-01-23T12:19:15.892Z,17.25
2019-01-23T12:21:42.173Z,19.30
2019-01-23T12:24:08.626Z,17.48
2019-01-23T12:26:35.048Z,18.73
2019-01-23T12:29:01.530Z,18.75
2019-01-23T12:31:34.667Z,20.40
2019-01-23T12:33:55.896Z,17.92
2019-01-23T12:36:22.298Z,19.42
2019-01-23T12:38:48.651Z,17.37
2019-01-23T12:41:15.144Z,18.57
2019-01-23T12:43:41.437Z,18.65
2019-01-23T12:46:07.884Z,19.48
2019-01-23T12:48:34.308Z,17.98
2019-01-23T12:51:00.781Z,20.43
2019-01-23T12:53:27.262Z,17.30
2019-01-23T12:55:53.760Z,20.45
2019-01-23T12:58:20.242Z,18.17
2019-01-23T13:00:46.626Z,19.15
2019-01-23T13:03:12.981Z,20.77
2019-01-23T13:05:39.243Z,19.77
2019-01-23T13:08:05.632Z,18.85
2019-01-23T13:10:32.192Z,19.40
2019-01-23T13:12:58.676Z,19.32
2019-01-23T13:15:26.587Z,19.05
2019-01-23T13:17:53.966Z,19.80
2019-01-23T13:20:22.060Z,20.23
2019-01-23T13:22:48.557Z,19.07
2019-01-23T13:25:16.921Z,18.62
2019-01-23T13:27:43.492Z,20.17
2019-01-23T13:30:12.869Z,18.52
2019-01-23T13:32:39.347Z,20.08
2019-01-23T13:35:09.402Z,17.62
2019-01-23T13:37:35.688Z,20.00
2019-01-23T13:40:05.155Z,18.57
2019-01-23T13:42:32.642Z,17.07
2019-01-23T13:44:58.911Z,18.48
2019-01-23T13:47:25.401Z,17.95
2019-01-23T13:49:51.893Z,19.12
2019-01-23T13:52:18.360Z,20.05
2019-01-23T13:54:44.824Z,16.55
2019-01-23T13:57:11.242Z,18.82
2019-01-23T13:59:37.500Z,18.90
2019-01-23T14:02:04.005Z,18.07
2019-01-23T14:04:30.404Z,17.85
2019-01-23T14:06:56.684Z,19.73
2019-01-23T14:09:23.052Z,18.45
2019-01-23T14:11:49.444Z,18.50
2019-01-23T14:14:15.825Z,17.48
2019-01-23T14:16:42.389Z,19.30
2019-01-23T14:19:08.816Z,18.15
2019-01-23T14:21:35.101Z,18.15
2019-01-23T14:24:01.467Z,20.08
2019-01-23T14:26:27.877Z,19.12
2019-01-23T14:28:54.338Z,19.05
2019-01-23T14:31:20.596Z,19.45
2019-01-23T14:33:46.893Z,19.62
2019-01-23T14:36:13.152Z,19.70
2019-01-23T14:38:39.544Z,20.20
2019-01-23T14:41:05.809Z,18.75
2019-01-23T14:43:32.191Z,19.98
2019-01-23T14:45:58.656Z,18.42
2019-01-23T14:48:25.160Z,20.97
2019-01-23T14:50:51.635Z,20.43
2019-01-23T14:53:18.026Z,20.35
2019-01-23T14:55:44.332Z,19.52
2019-01-23T14:58:10.820Z,21.33
2019-01-23T15:00:37.301Z,19.48
2019-01-23T15:03:04.093Z,20.82
2019-01-23T15:05:30.435Z,19.67
2019-01-23T15:07:56.904Z,21.02
2019-01-23T15:10:28.454Z,22.05
2019-01-23T15:12:55.391Z,21.25
2019-01-23T15:15:21.761Z,20.10
2019-01-23T15:17:48.253Z,19.90
2019-01-23T15:20:19.797Z,22.75
2019-01-23T15:22:46.157Z,20.15
2019-01-23T15:25:13.096Z,19.45
2019-01-23T15:27:39.333Z,20.27
2019-01-23T15:30:09.435Z,18.52
2019-01-23T15:32:35.976Z,18.07
2019-01-23T15:35:04.832Z,19.67
2019-01-23T15:37:31.136Z,21.05
2019-01-23T15:39:57.387Z,23.20
2019-01-23T15:42:23.645Z,24.20
2019-01-23T15:44:50.065Z,25.05
2019-01-23T15:47:16.430Z,20.25
2019-01-23T15:49:42.700Z,18.05
2019-01-23T15:52:09.053Z,18.05
2019-01-23T15:54:35.342Z,20.62
2019-01-23T15:57:01.589Z,19.55
2019-01-23T15:59:27.865Z,22.10
2019-01-23T16:01:54.358Z,20.05
2019-01-23T16:04:20.722Z,22.15
2019-01-23T16:06:46.956Z,23.45
2019-01-23T16:09:13.537Z,23.95
2019-01-23T16:11:40.031Z,24.40
2019-01-23T16:14:06.383Z,23.15
2019-01-23T16:16:32.773Z,25.45
2019-01-23T16:18:59.152Z,23.62
2019-01-23T16:21:25.494Z,23.52
2019-01-23T16:23:51.790Z,22.55
2019-01-23T16:26:18.152Z,21.52
2019-01-23T16:28:44.424Z,23.05
2019-01-23T16:31:11.671Z,23.75
2019-01-23T16:33:37.996Z,24.72
2019-01-23T16:36:04.457Z,24.30
2019-01-23T16:38:30.832Z,22.77
2019-01-23T16:40:57.093Z,24.85
2019-01-23T16:43:23.489Z,22.50
2019-01-23T16:45:49.841Z,21.80
2019-01-23T16:48:16.110Z,22.17
2019-01-23T16:50:42.595Z,23.55
2019-01-23T16:53:09.064Z,22.60
2019-01-23T16:55:35.737Z,24.82
2019-01-23T16:58:03.632Z,22.62
2019-01-23T17:00:30.089Z,23.15
2019-01-23T17:02:57.489Z,21.77
2019-01-23T17:05:26.669Z,22.58
2019-01-23T17:07:53.839Z,23.12
2019-01-23T17:10:22.306Z,24.82
2019-01-23T17:12:48.680Z,24.23
2019-01-23T17:15:15.363Z,25.82
2019-01-23T17:17:41.855Z,28.15
2019-01-23T17:20:12.773Z,21.50
2019-01-23T17:22:39.250Z,23.25
2019-01-23T17:25:08.080Z,23.73
2019-01-23T17:27:34.483Z,25.97
2019-01-23T17:30:00.988Z,26.27
2019-01-23T17:32:27.468Z,26.93
2019-01-23T17:34:53.825Z,22.65
2019-01-23T17:37:20.259Z,22.37
2019-01-23T17:39:46.662Z,23.83
2019-01-23T17:42:12.953Z,24.50
2019-01-23T17:44:39.211Z,24.52
2019-01-23T17:47:05.689Z,21.77
2019-01-23T17:49:32.071Z,23.27
2019-01-23T17:51:58.331Z,21.75
2019-01-23T17:54:24.728Z,23.57
2019-01-23T17:56:50.980Z,23.38
2019-01-23T17:59:17.519Z,25.20
2019-01-23T18:01:43.896Z,24.20
2019-01-23T18:04:10.383Z,24.30
2019-01-23T18:06:36.764Z,23.95
2019-01-23T18:09:06.684Z,24.82
2019-01-23T18:11:32.967Z,23.50
2019-01-23T18:13:59.323Z,24.40
2019-01-23T18:16:25.925Z,24.92
2019-01-23T18:18:52.621Z,25.92
2019-01-23T18:21:19.304Z,22.98
2019-01-23T18:23:45.668Z,23.02
2019-01-23T18:26:12.008Z,23.60
2019-01-23T18:28:38.375Z,23.45
2019-01-23T18:31:14.583Z,25.45
2019-01-23T18:33:54.552Z,26.82
2019-01-23T18:36:41.242Z,24.98
2019-01-23T18:39:17.148Z,25.15
2019-01-23T18:41:53.234Z,24.80
2019-01-23T18:44:32.196Z,26.87
2019-01-23T18:47:12.310Z,23.42
2019-01-23T18:49:53.985Z,24.00
2019-01-23T18:52:20.255Z,24.85
2019-01-23T18:54:46.520Z,24.57
2019-01-23T18:57:27.749Z,25.50
2019-01-23T18:59:59.147Z,25.10
2019-01-23T19:02:23.027Z,25.65
2019-01-23T19:04:49.508Z,24.30
2019-01-23T19:07:16.203Z,25.10
2019-01-23T19:09:42.671Z,25.27
2019-01-23T19:12:09.279Z,26.40
2019-01-23T19:14:35.789Z,20.80
2019-01-23T19:17:02.559Z,26.30
2019-01-23T19:19:28.923Z,26.77
2019-01-23T19:21:55.418Z,24.40
2019-01-23T19:24:21.905Z,23.80
2019-01-23T19:26:48.292Z,26.10
2019-01-23T19:29:14.799Z,24.40
2019-01-23T19:31:41.202Z,25.77
2019-01-23T19:34:07.825Z,25.92
2019-01-23T19:36:34.186Z,25.52
2019-01-23T19:39:00.501Z,27.30
2019-01-23T19:41:27.029Z,24.37
2019-01-23T19:43:53.428Z,26.30
2019-01-23T19:46:19.837Z,24.90
2019-01-23T19:48:46.331Z,27.17
2019-01-23T19:51:12.712Z,25.57
2019-01-23T19:53:38.985Z,26.20
2019-01-23T19:56:05.368Z,24.95
2019-01-23T19:58:31.649Z,26.90
2019-01-23T20:00:58.058Z,27.07
2019-01-23T20:03:24.499Z,25.68
2019-01-23T20:05:50.885Z,27.20
2019-01-23T20:08:17.248Z,26.30
2019-01-23T20:10:43.567Z,29.15
2019-01-23T20:13:10.110Z,27.25
2019-01-23T20:15:36.483Z,26.17
2019-01-23T20:18:03.579Z,26.57
2019-01-23T20:20:30.139Z,27.25
2019-01-23T20:22:56.527Z,28.32
2019-01-23T20:25:24.751Z,26.45
2019-01-23T20:27:51.419Z,28.07
2019-01-23T20:30:21.415Z,25.95
2019-01-23T20:32:47.817Z,27.32
2019-01-23T20:35:14.230Z,26.05
2019-01-23T20:37:43.561Z,27.70
2019-01-23T20:40:11.227Z,25.97
2019-01-23T20:42:37.800Z,27.05
2019-01-23T20:45:07.934Z,27.60
2019-01-23T20:47:34.404Z,26.02
2019-01-23T20:50:00.884Z,26.60
2019-01-23T20:52:27.184Z,25.43
2019-01-23T20:54:53.540Z,25.88
2019-01-23T20:57:19.889Z,28.85
2019-01-23T20:59:46.376Z,26.62
2019-01-23T21:02:12.746Z,29.30
2019-01-23T21:04:39.034Z,24.90
2019-01-23T21:07:05.503Z,28.60
2019-01-23T21:09:31.854Z,26.48
2019-01-23T21:11:58.243Z,27.87
2019-01-23T21:14:24.684Z,28.25
2019-01-23T21:16:50.996Z,27.52
2019-01-23T21:19:17.335Z,28.12
2019-01-23T21:21:43.887Z,25.37
2019-01-23T21:24:10.204Z,28.00
2019-01-23T21:26:36.476Z,25.60
2019-01-23T21:29:03.299Z,26.93
2019-01-23T21:31:29.560Z,28.20
2019-01-23T21:33:55.835Z,28.32
2019-01-23T21:36:22.253Z,28.92
2019-01-23T21:38:48.526Z,28.80
2019-01-23T21:41:14.918Z,28.77
2019-01-23T21:43:41.258Z,29.95
2019-01-23T21:46:07.616Z,30.05
2019-01-23T21:48:34.039Z,30.08
2019-01-23T21:51:00.505Z,35.13
2019-01-23T21:53:26.988Z,39.88
2019-01-23T21:55:53.408Z,40.28
2019-01-23T21:58:19.765Z,40.45
2019-01-23T22:00:46.176Z,40.10
2019-01-23T22:03:12.748Z,41.05
2019-01-23T22:05:39.256Z,36.90
2019-01-23T22:08:06.833Z,35.80
2019-01-23T22:10:33.152Z,38.70
2019-01-23T22:12:59.423Z,38.58
2019-01-23T22:15:27.903Z,38.70
2019-01-23T22:17:54.235Z,38.30
2019-01-23T22:20:20.804Z,36.93
2019-01-23T22:22:47.078Z,37.75
2019-01-23T22:25:15.804Z,37.05
2019-01-23T22:27:42.115Z,37.98
2019-01-23T22:30:21.124Z,34.90
2019-01-23T22:32:47.685Z,36.68
2019-01-23T22:35:14.500Z,35.68
2019-01-23T22:37:40.888Z,35.65
2019-01-23T22:40:10.336Z,34.48
2019-01-23T22:42:36.844Z,36.65
2019-01-23T22:45:07.065Z,36.90
2019-01-23T22:47:33.400Z,35.15
2019-01-23T22:49:59.693Z,34.58
2019-01-23T22:52:26.047Z,34.67
2019-01-23T22:54:52.341Z,35.25
2019-01-23T22:57:18.736Z,35.75
2019-01-23T22:59:45.018Z,35.55
2019-01-23T23:02:11.413Z,38.78
2019-01-23T23:04:37.705Z,38.58
2019-01-23T23:07:04.245Z,35.48
2019-01-23T23:09:30.566Z,35.40
2019-01-23T23:11:56.915Z,38.10
2019-01-23T23:14:23.229Z,38.15
2019-01-23T23:16:49.745Z,36.35
2019-01-23T23:19:16.119Z,35.75
2019-01-23T23:21:42.508Z,38.00
2019-01-23T23:24:08.911Z,37.65
2019-01-23T23:26:35.276Z,37.28
2019-01-23T23:29:01.765Z,39.05
2019-01-23T23:31:28.257Z,36.50
2019-01-23T23:33:54.594Z,38.05
2019-01-23T23:36:20.999Z,36.70
2019-01-23T23:38:48.137Z,37.90
2019-01-23T23:41:14.515Z,39.08
2019-01-23T23:43:40.895Z,39.13
2019-01-23T23:46:07.292Z,38.45
2019-01-23T23:48:33.650Z,39.73
2019-01-23T23:51:00.167Z,39.27
2019-01-23T23:53:26.756Z,37.38
2019-01-23T23:55:53.215Z,40.98
2019-01-23T23:58:19.584Z,38.65
